KOAR/OAR METAR and TAF weather

Enter ICAO airport designator
Station Type Date Time Source
KOAR METAR 2022/06/28 15:55 UTC NOAA

KOAR 281555Z AUTO 29003KT 5SM BR OVC003 08/07 A3008 RMK AO2


Station Type Date Time Source
KOAR Decoded METAR 2022/06/28 15:55 UTC NOAA

Station name not available
Jun 28, 2022 - 11:55 AM EDT / 2022.06.28 1555 UTC
Wind: from the WNW (290 degrees) at 3 MPH (3 KT):0
Visibility: 5 mile(s):0
Sky conditions: overcast
Weather: mist
Temperature: 46 F (8 C)
Dew Point: 44 F (7 C)
Relative Humidity: 93%
Pressure (altimeter): 30.08 in. Hg (1018 hPa)
ob: KOAR 281555Z AUTO 29003KT 5SM BR OVC003 08/07 A3008 RMK AO2
cycle: 16

Station Type Date Time Source
KOAR TAF UTC NOAA

Error!

Example: see airport list